createdAt,value
2023-02-21T00:02:20.345Z,97.16
2023-02-21T00:05:40.563Z,97.60
2023-02-21T00:09:00.793Z,97.67
2023-02-21T00:12:20.731Z,97.42
2023-02-21T00:15:40.994Z,97.61
2023-02-21T00:19:00.868Z,97.40
2023-02-21T00:22:20.667Z,97.59
2023-02-21T00:25:40.556Z,97.59
2023-02-21T00:29:00.484Z,97.39
2023-02-21T00:32:20.570Z,97.15
2023-02-21T00:35:40.640Z,97.51
2023-02-21T00:39:00.389Z,97.89
2023-02-21T00:42:20.782Z,97.21
2023-02-21T00:45:40.609Z,97.32
2023-02-21T00:49:00.656Z,97.04
2023-02-21T00:52:20.576Z,96.75
2023-02-21T00:55:40.507Z,98.20
2023-02-21T00:59:00.425Z,97.80
2023-02-21T01:02:20.654Z,98.12
2023-02-21T01:05:40.901Z,98.19
2023-02-21T01:09:05.420Z,98.48
2023-02-21T01:12:25.421Z,98.58
2023-02-21T01:15:45.375Z,98.72
2023-02-21T01:19:07.755Z,99.17
2023-02-21T01:22:27.938Z,99.48
2023-02-21T01:25:48.220Z,99.32
2023-02-21T01:29:08.170Z,98.65
2023-02-21T01:32:28.466Z,98.37
2023-02-21T01:35:48.580Z,98.57
2023-02-21T01:39:08.945Z,99.24
2023-02-21T01:42:29.944Z,99.34
2023-02-21T01:46:02.281Z,99.40
2023-02-21T01:49:31.569Z,99.80
2023-02-21T01:52:52.085Z,99.48
2023-02-21T01:56:14.589Z,100.00
2023-02-21T01:59:38.862Z,99.96
2023-02-21T02:03:10.850Z,100.00
2023-02-21T02:06:35.281Z,100.00
2023-02-21T02:09:55.458Z,100.00
2023-02-21T02:13:08.801Z,100.00
2023-02-21T02:16:20.934Z,100.00
2023-02-21T02:19:54.005Z,100.00
2023-02-21T02:23:16.658Z,100.00
2023-02-21T02:26:47.354Z,99.93
2023-02-21T02:30:08.027Z,100.00
2023-02-21T02:33:29.355Z,100.00
2023-02-21T02:36:39.706Z,100.00
2023-02-21T02:40:02.662Z,99.78
2023-02-21T02:43:30.820Z,99.91
2023-02-21T02:46:37.821Z,99.58
2023-02-21T02:49:43.289Z,99.86
2023-02-21T02:52:53.730Z,99.70
2023-02-21T02:56:00.738Z,99.93
2023-02-21T02:59:08.917Z,99.46
2023-02-21T03:02:16.502Z,100.00
2023-02-21T03:05:36.294Z,99.89
2023-02-21T03:09:09.094Z,100.00
2023-02-21T03:12:16.739Z,100.00
2023-02-21T03:15:27.374Z,100.00
2023-02-21T03:18:37.789Z,100.00
2023-02-21T03:21:46.892Z,100.00
2023-02-21T03:24:50.676Z,100.00
2023-02-21T03:27:55.277Z,100.00
2023-02-21T03:31:04.597Z,100.00
2023-02-21T03:34:06.770Z,100.00
2023-02-21T03:37:11.413Z,100.00
2023-02-21T03:40:17.456Z,100.00
2023-02-21T03:43:23.110Z,100.00
2023-02-21T03:46:30.974Z,100.00
2023-02-21T03:49:32.722Z,100.00
2023-02-21T03:52:34.554Z,100.00
2023-02-21T03:55:36.459Z,100.00
2023-02-21T03:58:42.667Z,100.00
2023-02-21T04:01:44.519Z,100.00
2023-02-21T04:04:48.488Z,100.00
2023-02-21T04:07:52.385Z,100.00
2023-02-21T04:10:53.844Z,100.00
2023-02-21T04:13:57.777Z,100.00
2023-02-21T04:16:59.224Z,100.00
2023-02-21T04:20:01.329Z,100.00
2023-02-21T04:23:03.951Z,100.00
2023-02-21T04:26:06.883Z,100.00
2023-02-21T04:29:15.761Z,100.00
2023-02-21T04:32:17.704Z,100.00
2023-02-21T04:35:19.521Z,100.00
2023-02-21T04:38:21.858Z,100.00
2023-02-21T04:41:23.608Z,100.00
2023-02-21T04:44:25.193Z,100.00
2023-02-21T04:47:26.702Z,100.00
2023-02-21T04:50:28.727Z,100.00
2023-02-21T04:53:30.174Z,100.00
2023-02-21T04:56:32.647Z,100.00
2023-02-21T04:59:34.113Z,100.00
2023-02-21T05:02:35.740Z,100.00
2023-02-21T05:05:37.312Z,100.00
2023-02-21T05:08:38.766Z,100.00
2023-02-21T05:11:41.305Z,100.00
2023-02-21T05:14:43.136Z,100.00
2023-02-21T05:17:46.272Z,100.00
2023-02-21T05:20:48.089Z,100.00
2023-02-21T05:23:58.244Z,100.00
2023-02-21T05:26:59.798Z,100.00
2023-02-21T05:30:01.414Z,100.00
2023-02-21T05:33:02.981Z,100.00
2023-02-21T05:36:04.843Z,100.00
2023-02-21T05:39:07.863Z,100.00
2023-02-21T05:42:09.718Z,100.00
2023-02-21T05:45:11.580Z,100.00
2023-02-21T05:48:13.070Z,100.00
2023-02-21T05:51:15.994Z,100.00
2023-02-21T05:54:20.439Z,100.00
2023-02-21T05:57:22.045Z,100.00
2023-02-21T06:00:28.969Z,100.00
2023-02-21T06:03:30.680Z,100.00
2023-02-21T06:06:32.204Z,100.00
2023-02-21T06:09:33.976Z,100.00
2023-02-21T06:12:36.350Z,100.00
2023-02-21T06:15:37.802Z,100.00
2023-02-21T06:18:39.617Z,100.00
2023-02-21T06:21:42.021Z,100.00
2023-02-21T06:24:43.892Z,100.00
2023-02-21T06:27:45.418Z,100.00
2023-02-21T06:30:46.950Z,100.00
2023-02-21T06:33:50.021Z,100.00
2023-02-21T06:36:52.973Z,100.00
2023-02-21T06:39:54.866Z,100.00
2023-02-21T06:42:56.361Z,100.00
2023-02-21T06:45:57.905Z,100.00
2023-02-21T06:48:59.636Z,100.00
2023-02-21T06:52:01.345Z,100.00
2023-02-21T06:55:02.866Z,100.00
2023-02-21T06:58:05.172Z,100.00
2023-02-21T07:01:06.688Z,100.00
2023-02-21T07:04:08.112Z,100.00
2023-02-21T07:07:09.560Z,100.00
2023-02-21T07:10:11.571Z,100.00
2023-02-21T07:13:13.000Z,100.00
2023-02-21T07:16:14.515Z,100.00
2023-02-21T07:22:19.014Z,100.00
2023-02-21T07:25:22.240Z,100.00
2023-02-21T07:28:23.794Z,100.00
2023-02-21T07:31:25.344Z,100.00
2023-02-21T07:34:26.878Z,100.00
2023-02-21T07:37:28.418Z,99.40
2023-02-21T07:40:29.934Z,100.00
2023-02-21T07:43:32.544Z,98.72
2023-02-21T07:46:34.822Z,98.47
2023-02-21T07:49:41.332Z,97.69
2023-02-21T07:52:42.928Z,97.47
2023-02-21T07:55:44.482Z,96.81
2023-02-21T07:58:45.943Z,95.99
2023-02-21T08:01:47.884Z,95.33
2023-02-21T08:04:52.816Z,94.71
2023-02-21T08:07:56.095Z,94.15
2023-02-21T08:10:57.694Z,93.84
2023-02-21T08:13:59.819Z,93.13
2023-02-21T08:17:01.312Z,92.64
2023-02-21T08:20:04.708Z,91.29
2023-02-21T08:23:06.129Z,90.52
2023-02-21T08:26:07.664Z,90.40
2023-02-21T08:29:09.267Z,89.07
2023-02-21T08:32:11.078Z,89.03
2023-02-21T08:35:15.328Z,89.66
2023-02-21T08:38:18.531Z,89.99
2023-02-21T08:41:20.039Z,88.61
2023-02-21T08:44:21.835Z,86.58
2023-02-21T08:47:23.406Z,85.61
2023-02-21T08:50:28.341Z,84.43
2023-02-21T08:53:29.878Z,82.24
2023-02-21T08:56:31.810Z,80.44
2023-02-21T08:59:34.863Z,78.50
2023-02-21T09:02:40.565Z,78.47
2023-02-21T09:05:42.061Z,77.15
2023-02-21T09:08:43.714Z,74.97
2023-02-21T09:11:48.322Z,73.24
2023-02-21T09:14:49.796Z,72.22
2023-02-21T09:17:54.344Z,71.50
2023-02-21T09:20:57.427Z,70.75
2023-02-21T09:24:02.935Z,69.76
2023-02-21T09:27:06.078Z,69.34
2023-02-21T09:30:09.943Z,69.04
2023-02-21T09:33:12.394Z,69.04
2023-02-21T09:36:13.947Z,69.05
2023-02-21T09:39:16.162Z,68.49
2023-02-21T09:42:18.907Z,68.50
2023-02-21T09:45:22.408Z,67.68
2023-02-21T09:48:24.261Z,66.83
2023-02-21T09:51:26.558Z,66.77
2023-02-21T09:54:35.788Z,65.99
2023-02-21T09:57:37.775Z,66.36
2023-02-21T10:00:39.625Z,65.57
2023-02-21T10:03:51.882Z,64.29
2023-02-21T10:06:59.742Z,63.04
2023-02-21T10:10:10.222Z,62.25
2023-02-21T10:13:17.486Z,61.07
2023-02-21T10:16:32.077Z,61.51
2023-02-21T10:19:42.074Z,60.07
2023-02-21T10:22:47.537Z,60.14
2023-02-21T10:25:55.400Z,59.85
2023-02-21T10:28:57.236Z,59.12
2023-02-21T10:32:03.324Z,58.53
2023-02-21T10:35:05.235Z,57.93
2023-02-21T10:38:11.553Z,58.08
2023-02-21T10:41:13.349Z,58.00
2023-02-21T10:44:26.952Z,58.51
2023-02-21T10:47:58.766Z,59.20
2023-02-21T10:51:03.385Z,57.97
2023-02-21T10:54:25.345Z,57.61
2023-02-21T10:57:27.928Z,57.83
2023-02-21T11:00:38.876Z,57.97
2023-02-21T11:03:46.948Z,57.68
2023-02-21T11:06:51.549Z,57.14
2023-02-21T11:09:53.153Z,56.83
2023-02-21T11:13:10.237Z,56.47
2023-02-21T11:16:24.590Z,56.75
2023-02-21T11:19:26.019Z,56.70
2023-02-21T11:22:34.813Z,56.06
2023-02-21T11:25:40.466Z,55.67
2023-02-21T11:28:47.439Z,55.58
2023-02-21T11:31:48.997Z,55.25
2023-02-21T11:34:51.145Z,55.53
2023-02-21T11:38:05.565Z,55.34
2023-02-21T11:41:27.273Z,55.25
2023-02-21T11:44:38.182Z,55.27
2023-02-21T11:47:46.394Z,54.54
2023-02-21T11:50:53.499Z,54.59
2023-02-21T11:53:55.005Z,54.50
2023-02-21T11:57:06.671Z,54.68
2023-02-21T12:00:25.743Z,54.05
2023-02-21T12:03:37.469Z,53.97
2023-02-21T12:06:50.303Z,53.93
2023-02-21T12:10:03.854Z,53.94
2023-02-21T12:13:33.591Z,53.22
2023-02-21T12:16:53.649Z,53.14
2023-02-21T12:20:13.810Z,52.71
2023-02-21T12:23:41.313Z,52.26
2023-02-21T12:26:51.520Z,52.14
2023-02-21T12:30:11.927Z,51.37
2023-02-21T12:33:16.200Z,51.32
2023-02-21T12:36:30.563Z,50.94
2023-02-21T12:39:50.974Z,50.99
2023-02-21T12:43:30.192Z,49.70
2023-02-21T12:46:45.464Z,49.65
2023-02-21T12:49:46.941Z,49.26
2023-02-21T12:53:03.418Z,48.74
2023-02-21T12:56:13.950Z,48.25
2023-02-21T12:59:42.508Z,47.29
2023-02-21T13:03:01.242Z,46.88
2023-02-21T13:06:09.915Z,46.44
2023-02-21T13:09:20.131Z,46.22
2023-02-21T13:12:28.231Z,45.47
2023-02-21T13:15:31.110Z,45.30
2023-02-21T13:18:40.589Z,45.56
2023-02-21T13:21:54.340Z,45.47
2023-02-21T13:25:18.078Z,44.71
2023-02-21T13:28:25.614Z,44.10
2023-02-21T13:31:38.172Z,43.42
2023-02-21T13:34:45.692Z,43.29
2023-02-21T13:37:51.818Z,43.29
2023-02-21T13:41:03.145Z,43.66
2023-02-21T13:44:27.901Z,43.23
2023-02-21T13:47:55.136Z,43.23
2023-02-21T13:50:59.111Z,43.81
2023-02-21T13:54:24.863Z,43.34
2023-02-21T13:57:34.545Z,43.88
2023-02-21T14:00:36.022Z,43.74
2023-02-21T14:03:37.547Z,44.28
2023-02-21T14:06:40.170Z,44.51
2023-02-21T14:09:42.345Z,44.05
2023-02-21T14:12:45.294Z,44.17
2023-02-21T14:15:49.731Z,43.95
2023-02-21T14:19:07.379Z,44.17
2023-02-21T14:22:25.045Z,43.91
2023-02-21T14:25:27.743Z,43.72
2023-02-21T14:29:08.422Z,43.72
2023-02-21T14:32:10.000Z,44.27
2023-02-21T14:35:35.417Z,43.19
2023-02-21T14:38:42.325Z,43.27
2023-02-21T14:42:05.728Z,42.76
2023-02-21T14:45:10.019Z,42.45
2023-02-21T14:48:33.841Z,41.58
2023-02-21T14:52:19.719Z,41.09
2023-02-21T14:55:50.746Z,41.43
2023-02-21T14:59:39.932Z,41.94
2023-02-21T15:02:50.038Z,41.87
2023-02-21T15:06:03.939Z,41.46
2023-02-21T15:09:17.569Z,41.40
2023-02-21T15:12:19.062Z,42.10
2023-02-21T15:15:22.981Z,42.23
2023-02-21T15:18:29.742Z,42.22
2023-02-21T15:21:31.271Z,42.71
2023-02-21T15:24:32.728Z,42.27
2023-02-21T15:27:51.530Z,42.40
2023-02-21T15:31:00.441Z,41.14
2023-02-21T15:34:02.778Z,40.76
2023-02-21T15:37:16.382Z,40.60
2023-02-21T15:40:23.176Z,40.24
2023-02-21T15:43:44.840Z,40.79
2023-02-21T15:47:08.923Z,40.98
2023-02-21T15:50:18.725Z,40.06
2023-02-21T15:53:24.837Z,39.58
2023-02-21T15:56:28.509Z,40.41
2023-02-21T15:59:30.847Z,41.48
2023-02-21T16:02:32.559Z,41.98
2023-02-21T16:05:34.040Z,43.77
2023-02-21T16:08:39.196Z,45.27
2023-02-21T16:12:19.551Z,47.06
2023-02-21T16:15:25.959Z,48.07
2023-02-21T16:18:27.508Z,49.83
2023-02-21T16:21:29.828Z,52.76
2023-02-21T16:24:32.745Z,54.24
2023-02-21T16:27:34.331Z,54.93
2023-02-21T16:30:35.996Z,55.57
2023-02-21T16:33:37.512Z,56.52
2023-02-21T16:36:40.895Z,57.49
2023-02-21T16:39:42.806Z,57.96
2023-02-21T16:42:44.282Z,58.29
2023-02-21T16:45:48.482Z,59.14
2023-02-21T16:48:50.026Z,59.53
2023-02-21T16:51:51.494Z,60.19
2023-02-21T16:54:52.960Z,60.78
2023-02-21T16:57:59.214Z,60.81
2023-02-21T17:01:07.955Z,61.75
2023-02-21T17:04:22.960Z,62.44
2023-02-21T17:07:25.639Z,63.79
2023-02-21T17:10:27.185Z,64.52
2023-02-21T17:13:28.609Z,65.33
2023-02-21T17:16:30.667Z,65.42
2023-02-21T17:19:32.499Z,66.40
2023-02-21T17:22:34.522Z,66.72
2023-02-21T17:25:36.505Z,66.47
2023-02-21T17:28:39.361Z,66.51
2023-02-21T17:31:40.932Z,66.93
2023-02-21T17:34:43.206Z,67.53
2023-02-21T17:37:47.451Z,67.75
2023-02-21T17:40:49.510Z,68.08
2023-02-21T17:43:51.044Z,68.46
2023-02-21T17:46:55.832Z,68.84
2023-02-21T17:50:01.829Z,68.99
2023-02-21T17:53:04.374Z,68.63
2023-02-21T17:56:05.895Z,68.08
2023-02-21T17:59:07.447Z,68.93
2023-02-21T18:02:08.978Z,68.81
2023-02-21T18:05:10.573Z,68.94
2023-02-21T18:08:12.090Z,69.19
2023-02-21T18:11:16.350Z,69.36
2023-02-21T18:14:19.031Z,70.22
2023-02-21T18:17:20.677Z,70.55
2023-02-21T18:20:22.414Z,70.27
2023-02-21T18:23:23.849Z,70.57
2023-02-21T18:26:25.360Z,70.22
2023-02-21T18:29:26.935Z,70.30
2023-02-21T18:32:28.521Z,70.22
2023-02-21T18:35:30.182Z,70.64
2023-02-21T18:38:31.676Z,70.66
2023-02-21T18:41:33.470Z,71.67
2023-02-21T18:44:35.007Z,71.59
2023-02-21T18:47:36.466Z,71.93
2023-02-21T18:50:37.997Z,72.34
2023-02-21T18:53:40.052Z,72.11
2023-02-21T18:56:49.147Z,72.83
2023-02-21T18:59:50.723Z,72.60
2023-02-21T19:02:52.618Z,72.94
2023-02-21T19:05:54.092Z,73.75
2023-02-21T19:08:55.658Z,73.84
2023-02-21T19:11:57.161Z,74.14
2023-02-21T19:14:58.675Z,74.11
2023-02-21T19:18:00.351Z,73.92
2023-02-21T19:21:01.953Z,74.29
2023-02-21T19:24:04.253Z,74.90
2023-02-21T19:27:05.761Z,74.97
2023-02-21T19:30:07.929Z,75.16
2023-02-21T19:33:09.442Z,75.21
2023-02-21T19:36:11.890Z,75.25
2023-02-21T19:39:13.722Z,75.63
2023-02-21T19:42:15.220Z,76.15
2023-02-21T19:45:18.077Z,77.18
2023-02-21T19:48:21.197Z,77.02
2023-02-21T19:51:25.017Z,77.97
2023-02-21T19:54:32.639Z,78.48
2023-02-21T19:57:34.222Z,78.26
2023-02-21T20:00:38.503Z,77.57
2023-02-21T20:03:41.792Z,78.21
2023-02-21T20:06:43.233Z,78.14
2023-02-21T20:09:48.238Z,77.70
2023-02-21T20:12:49.801Z,78.64
2023-02-21T20:15:51.400Z,78.85
2023-02-21T20:18:54.255Z,79.07
2023-02-21T20:21:57.129Z,78.85
2023-02-21T20:24:58.640Z,79.07
2023-02-21T20:28:00.416Z,79.56
2023-02-21T20:31:01.998Z,79.79
2023-02-21T20:34:06.759Z,80.17
2023-02-21T20:37:10.995Z,80.45
2023-02-21T20:40:15.273Z,80.98
2023-02-21T20:43:16.755Z,80.75
2023-02-21T20:46:22.664Z,81.45
2023-02-21T20:49:24.137Z,80.89
2023-02-21T20:52:25.604Z,81.83
2023-02-21T20:55:27.148Z,82.02
2023-02-21T20:58:29.133Z,82.08
2023-02-21T21:01:31.325Z,82.07
2023-02-21T21:04:38.306Z,82.16
2023-02-21T21:07:41.343Z,82.58
2023-02-21T21:10:48.379Z,82.57
2023-02-21T21:13:50.104Z,82.81
2023-02-21T21:16:52.397Z,83.73
2023-02-21T21:19:54.816Z,83.87
2023-02-21T21:22:56.339Z,83.45
2023-02-21T21:26:02.022Z,83.66
2023-02-21T21:29:08.964Z,83.86
2023-02-21T21:32:12.559Z,83.74
2023-02-21T21:35:17.003Z,83.76
2023-02-21T21:38:18.901Z,84.26
2023-02-21T21:41:20.416Z,84.18
2023-02-21T21:44:23.145Z,83.60
2023-02-21T21:47:27.007Z,83.85
2023-02-21T21:50:28.457Z,84.06
2023-02-21T21:53:30.036Z,83.87
2023-02-21T21:56:31.794Z,83.83
2023-02-21T21:59:33.479Z,84.00
2023-02-21T22:02:34.974Z,84.49
2023-02-21T22:05:36.540Z,84.48
2023-02-21T22:08:38.912Z,84.02
2023-02-21T22:11:42.659Z,84.22
2023-02-21T22:14:44.125Z,84.92
2023-02-21T22:17:45.664Z,85.12
2023-02-21T22:20:50.023Z,85.37
2023-02-21T22:23:51.993Z,85.31
2023-02-21T22:26:55.328Z,84.91
2023-02-21T22:29:58.341Z,85.42
2023-02-21T22:32:59.898Z,85.42
2023-02-21T22:36:02.267Z,85.29
2023-02-21T22:39:11.011Z,85.21
2023-02-21T22:42:12.609Z,86.21
2023-02-21T22:45:14.056Z,85.83
2023-02-21T22:48:18.322Z,86.22
2023-02-21T22:51:27.872Z,86.27
2023-02-21T22:54:31.581Z,86.19
2023-02-21T22:57:33.368Z,86.27
2023-02-21T23:00:35.796Z,86.29
2023-02-21T23:03:40.713Z,85.92
2023-02-21T23:06:43.608Z,86.45
2023-02-21T23:09:45.394Z,86.38
2023-02-21T23:12:49.697Z,86.63
2023-02-21T23:15:53.690Z,86.14
2023-02-21T23:18:56.181Z,85.98
2023-02-21T23:21:58.017Z,85.91
2023-02-21T23:24:59.442Z,85.99
2023-02-21T23:28:06.998Z,86.29
2023-02-21T23:31:08.457Z,86.14
2023-02-21T23:34:11.941Z,86.69
2023-02-21T23:37:15.251Z,86.97
2023-02-21T23:40:19.828Z,87.08
2023-02-21T23:43:25.080Z,87.77
2023-02-21T23:46:29.123Z,87.09
2023-02-21T23:49:30.763Z,87.82
2023-02-21T23:52:32.260Z,87.49
2023-02-21T23:55:35.730Z,87.34
2023-02-21T23:58:38.996Z,87.94
